createdAt,value
2019-06-26T00:00:25.233Z,13.30
2019-06-26T00:02:56.272Z,10.80
2019-06-26T00:05:28.216Z,11.13
2019-06-26T00:07:59.057Z,13.97
2019-06-26T00:10:39.509Z,12.00
2019-06-26T00:13:25.121Z,11.47
2019-06-26T00:15:49.858Z,10.67
2019-06-26T00:18:25.744Z,12.17
2019-06-26T00:20:57.975Z,12.37
2019-06-26T00:23:31.816Z,10.37
2019-06-26T00:26:02.938Z,12.23
2019-06-26T00:28:35.239Z,10.67
2019-06-26T00:31:09.578Z,9.53
2019-06-26T00:33:44.328Z,11.90
2019-06-26T01:03:15.789Z,19.83
2019-06-26T01:05:47.433Z,15.50
2019-06-26T01:08:34.489Z,11.80
2019-06-26T01:11:04.948Z,18.07
2019-06-26T01:13:37.148Z,10.63
2019-06-26T01:16:09.477Z,14.57
2019-06-26T01:18:41.043Z,11.17
2019-06-26T01:21:12.193Z,11.13
2019-06-26T01:23:43.790Z,13.23
2019-06-26T01:26:14.419Z,14.20
2019-06-26T01:28:45.647Z,10.43
2019-06-26T01:31:16.612Z,10.43
2019-06-26T01:33:47.645Z,13.30
2019-06-26T01:36:20.287Z,10.53
2019-06-26T01:38:51.483Z,9.33
2019-06-26T01:41:24.819Z,12.43
2019-06-26T01:43:56.177Z,12.00
2019-06-26T01:46:27.977Z,11.00
2019-06-26T01:48:58.652Z,14.00
2019-06-26T01:51:31.416Z,14.20
2019-06-26T01:54:02.246Z,11.50
2019-06-26T01:56:33.598Z,12.27
2019-06-26T01:59:05.149Z,9.60
2019-06-26T02:01:35.764Z,12.90
2019-06-26T02:04:10.148Z,14.23
2019-06-26T02:06:41.016Z,11.43
2019-06-26T02:09:43.884Z,12.63
2019-06-26T02:12:15.737Z,11.33
2019-06-26T02:14:47.597Z,14.53
2019-06-26T02:17:18.780Z,11.30
2019-06-26T02:19:50.459Z,11.37
2019-06-26T02:22:21.153Z,12.00
2019-06-26T02:24:52.321Z,13.83
2019-06-26T02:27:23.227Z,10.13
2019-06-26T02:29:54.181Z,9.77
2019-06-26T02:32:30.740Z,11.77
2019-06-26T02:35:02.435Z,11.57
2019-06-26T02:37:45.885Z,12.83
2019-06-26T02:40:17.371Z,10.23
2019-06-26T02:42:48.630Z,12.50
2019-06-26T02:45:19.728Z,12.40
2019-06-26T02:47:50.824Z,13.67
2019-06-26T02:50:21.493Z,10.70
2019-06-26T02:52:52.096Z,15.87
2019-06-26T02:55:23.077Z,12.87
2019-06-26T02:57:54.693Z,11.73
2019-06-26T03:00:25.808Z,12.40
2019-06-26T03:02:57.923Z,12.43
2019-06-26T03:05:29.230Z,15.27
2019-06-26T03:07:59.839Z,11.27
2019-06-26T03:10:30.479Z,13.47
2019-06-26T03:13:01.637Z,12.00
2019-06-26T03:15:32.666Z,13.73
2019-06-26T03:18:03.694Z,11.30
2019-06-26T03:20:39.488Z,12.80
2019-06-26T03:23:10.357Z,11.23
2019-06-26T03:25:40.844Z,14.27
2019-06-26T03:28:13.212Z,12.70
2019-06-26T03:30:44.780Z,15.87
2019-06-26T03:33:16.081Z,12.47
2019-06-26T03:35:47.386Z,15.57
2019-06-26T03:38:18.698Z,14.20
2019-06-26T03:40:49.944Z,16.07
2019-06-26T03:43:21.189Z,13.30
2019-06-26T03:45:51.857Z,15.77
2019-06-26T03:48:23.069Z,15.63
2019-06-26T03:50:53.809Z,16.63
2019-06-26T03:53:28.181Z,11.80
2019-06-26T03:55:58.934Z,15.63
2019-06-26T03:58:30.108Z,14.23
2019-06-26T04:01:00.481Z,15.33
2019-06-26T04:03:31.568Z,14.93
2019-06-26T04:06:03.038Z,24.17
2019-06-26T04:08:35.049Z,46.70
2019-06-26T04:11:05.844Z,21.47
2019-06-26T04:13:37.414Z,13.43
2019-06-26T04:16:08.002Z,15.67
2019-06-26T04:18:39.471Z,15.07
2019-06-26T04:21:11.120Z,14.23
2019-06-26T04:23:42.166Z,13.30
2019-06-26T04:26:12.793Z,14.60
2019-06-26T04:28:43.724Z,13.07
2019-06-26T04:31:15.612Z,24.37
2019-06-26T04:33:46.530Z,17.50
2019-06-26T04:36:17.556Z,13.73
2019-06-26T04:38:48.156Z,20.37
2019-06-26T04:41:22.401Z,19.30
2019-06-26T04:43:54.465Z,14.17
2019-06-26T04:46:25.709Z,14.53
2019-06-26T04:48:57.330Z,13.60
2019-06-26T04:51:28.653Z,10.43
2019-06-26T04:54:00.227Z,14.87
2019-06-26T04:56:42.914Z,13.03
2019-06-26T04:59:14.023Z,15.10
2019-06-26T05:01:45.061Z,12.03
2019-06-26T05:04:16.607Z,16.90
2019-06-26T05:06:48.119Z,12.83
2019-06-26T05:09:19.524Z,12.13
2019-06-26T05:11:51.283Z,12.43
2019-06-26T05:14:22.572Z,15.80
2019-06-26T05:16:53.789Z,12.47
2019-06-26T05:19:25.115Z,14.97
2019-06-26T05:21:56.269Z,16.07
2019-06-26T05:24:26.884Z,14.47
2019-06-26T05:26:58.104Z,11.97
2019-06-26T05:29:29.048Z,13.07
2019-06-26T05:32:00.749Z,12.23
2019-06-26T05:34:31.708Z,11.73
2019-06-26T05:37:03.436Z,11.83
2019-06-26T05:39:35.290Z,12.77
2019-06-26T05:42:06.895Z,14.43
2019-06-26T05:44:38.726Z,12.67
2019-06-26T05:47:10.201Z,10.43
2019-06-26T05:49:41.782Z,13.40
2019-06-26T05:52:16.360Z,12.68
2019-06-26T05:54:45.333Z,11.35
2019-06-26T05:57:16.768Z,11.25
2019-06-26T05:59:47.785Z,13.75
2019-06-26T06:02:18.663Z,9.93
2019-06-26T06:04:49.208Z,12.33
2019-06-26T06:07:20.245Z,10.80
2019-06-26T06:09:51.648Z,11.73
2019-06-26T06:12:23.089Z,11.20
2019-06-26T06:14:54.079Z,11.10
2019-06-26T06:17:26.916Z,13.95
2019-06-26T06:19:58.105Z,9.10
2019-06-26T06:22:28.745Z,10.90
2019-06-26T06:25:08.195Z,10.60
2019-06-26T06:27:38.768Z,9.05
2019-06-26T06:30:09.929Z,11.78
2019-06-26T06:32:41.178Z,9.15
2019-06-26T06:35:11.468Z,10.20
2019-06-26T06:37:42.094Z,10.00
2019-06-26T06:40:13.098Z,9.55
2019-06-26T06:42:44.665Z,9.60
2019-06-26T06:45:16.088Z,10.53
2019-06-26T06:47:51.976Z,8.45
2019-06-26T06:50:22.558Z,9.68
2019-06-26T06:52:54.040Z,9.88
2019-06-26T06:55:25.871Z,8.73
2019-06-26T06:57:56.800Z,8.83
2019-06-26T07:00:27.754Z,10.03
2019-06-26T07:02:59.230Z,14.70
2019-06-26T07:05:30.197Z,8.45
2019-06-26T07:08:01.415Z,12.40
2019-06-26T07:10:53.646Z,8.03
2019-06-26T07:13:24.767Z,11.05
2019-06-26T07:15:55.615Z,9.85
2019-06-26T07:18:26.992Z,8.63
2019-06-26T07:20:57.985Z,9.83
2019-06-26T07:23:28.973Z,9.53
2019-06-26T07:26:00.118Z,10.28
2019-06-26T07:28:34.791Z,8.78
2019-06-26T07:31:06.082Z,8.53
2019-06-26T07:33:36.995Z,9.88
2019-06-26T07:36:08.329Z,9.78
2019-06-26T07:38:39.761Z,8.18
2019-06-26T07:41:10.723Z,8.93
2019-06-26T07:43:42.548Z,7.60
2019-06-26T07:46:14.078Z,9.13
2019-06-26T07:48:45.380Z,8.40
2019-06-26T07:51:16.351Z,11.25
2019-06-26T07:53:47.937Z,8.03
2019-06-26T07:56:19.111Z,7.87
2019-06-26T07:58:50.645Z,10.08
2019-06-26T08:01:21.613Z,9.45
2019-06-26T08:03:52.549Z,13.62
2019-06-26T08:06:23.485Z,9.13
2019-06-26T08:08:54.158Z,8.73
2019-06-26T08:11:25.677Z,7.28
2019-06-26T08:13:56.624Z,9.70
2019-06-26T08:16:27.851Z,14.00
2019-06-26T08:18:59.653Z,8.60
2019-06-26T08:21:30.546Z,9.20
2019-06-26T08:24:04.576Z,7.42
2019-06-26T08:26:35.615Z,10.75
2019-06-26T08:29:06.751Z,8.18
2019-06-26T08:31:38.059Z,8.55
2019-06-26T08:34:09.332Z,8.25
2019-06-26T08:36:40.802Z,8.58
2019-06-26T08:39:11.864Z,9.45
2019-06-26T08:41:42.909Z,12.73
2019-06-26T08:44:13.903Z,8.48
2019-06-26T08:46:44.491Z,11.00
2019-06-26T08:49:25.413Z,8.93
2019-06-26T08:51:49.068Z,8.95
2019-06-26T08:54:20.340Z,8.65
2019-06-26T08:56:51.573Z,10.98
2019-06-26T08:59:22.839Z,11.03
2019-06-26T09:01:54.439Z,9.95
2019-06-26T09:04:25.504Z,8.83
2019-06-26T09:06:57.193Z,7.92
2019-06-26T09:09:27.875Z,12.85
2019-06-26T09:11:59.169Z,6.55
2019-06-26T09:14:30.724Z,8.48
2019-06-26T09:17:01.387Z,10.63
2019-06-26T09:19:32.304Z,10.80
2019-06-26T09:22:03.685Z,9.18
2019-06-26T09:24:35.302Z,11.53
2019-06-26T09:27:06.391Z,9.43
2019-06-26T09:29:38.006Z,8.48
2019-06-26T09:32:08.734Z,9.55
2019-06-26T09:34:39.342Z,9.90
2019-06-26T09:37:50.319Z,8.95
2019-06-26T09:40:22.250Z,13.10
2019-06-26T09:42:53.240Z,8.98
2019-06-26T09:45:24.039Z,11.83
2019-06-26T09:47:55.254Z,9.53
2019-06-26T09:50:25.842Z,8.60
2019-06-26T09:52:56.455Z,7.33
2019-06-26T09:55:27.083Z,7.08
2019-06-26T09:57:58.462Z,7.95
2019-06-26T10:00:29.677Z,8.33
2019-06-26T10:03:00.722Z,9.38
2019-06-26T10:05:31.311Z,9.53
2019-06-26T10:08:02.598Z,8.63
2019-06-26T10:10:33.633Z,9.25
2019-06-26T10:13:04.596Z,9.05
2019-06-26T10:15:36.229Z,8.95
2019-06-26T10:18:07.501Z,8.48
2019-06-26T10:20:39.033Z,7.67
2019-06-26T10:23:10.341Z,9.48
2019-06-26T10:25:41.842Z,10.25
2019-06-26T10:28:12.570Z,8.20
2019-06-26T10:30:43.831Z,10.43
2019-06-26T10:33:14.865Z,7.65
2019-06-26T10:35:46.376Z,10.55
2019-06-26T10:38:17.656Z,6.58
2019-06-26T10:40:48.518Z,9.15
2019-06-26T10:43:19.537Z,8.10
2019-06-26T10:45:51.208Z,14.25
2019-06-26T10:48:22.124Z,8.83
2019-06-26T10:50:58.503Z,8.18
2019-06-26T10:53:41.587Z,8.25
2019-06-26T10:56:13.175Z,9.38
2019-06-26T10:58:44.520Z,7.45
2019-06-26T11:01:16.572Z,6.62
2019-06-26T11:03:47.178Z,10.75
2019-06-26T11:06:18.500Z,9.20
2019-06-26T11:08:49.894Z,7.83
2019-06-26T11:11:20.840Z,6.95
2019-06-26T11:13:52.232Z,8.28
2019-06-26T11:16:23.256Z,7.80
2019-06-26T11:18:53.929Z,8.63
2019-06-26T11:21:26.440Z,8.50
2019-06-26T11:23:57.140Z,7.03
2019-06-26T11:26:28.123Z,7.12
2019-06-26T11:29:10.430Z,9.45
2019-06-26T11:31:41.080Z,6.83
2019-06-26T11:34:11.689Z,7.35
2019-06-26T11:36:42.948Z,8.25
2019-06-26T11:39:13.570Z,7.58
2019-06-26T11:41:44.977Z,6.15
2019-06-26T11:44:16.227Z,6.87
2019-06-26T11:46:47.869Z,6.97
2019-06-26T11:49:19.472Z,5.53
2019-06-26T11:51:50.505Z,9.38
2019-06-26T11:54:21.455Z,8.10
2019-06-26T11:56:52.787Z,6.42
2019-06-26T11:59:23.840Z,8.55
2019-06-26T12:01:54.762Z,7.55
2019-06-26T12:04:25.880Z,7.25
2019-06-26T12:06:56.524Z,9.25
2019-06-26T12:09:27.483Z,6.33
2019-06-26T12:11:58.678Z,8.73
2019-06-26T12:14:48.723Z,6.20
2019-06-26T12:17:19.430Z,7.85
2019-06-26T12:19:50.585Z,8.80
2019-06-26T12:22:21.946Z,7.95
2019-06-26T12:24:53.588Z,5.95
2019-06-26T12:27:24.645Z,8.53
2019-06-26T12:29:55.772Z,10.48
2019-06-26T12:32:26.780Z,7.67
2019-06-26T12:34:58.001Z,7.22
2019-06-26T12:37:37.459Z,8.03
2019-06-26T12:40:02.699Z,8.88
2019-06-26T12:42:33.959Z,11.10
2019-06-26T12:45:04.799Z,6.72
2019-06-26T12:47:36.129Z,7.72
2019-06-26T12:50:08.598Z,7.60
2019-06-26T12:52:38.921Z,7.62
2019-06-26T12:55:10.159Z,11.85
2019-06-26T12:57:41.392Z,8.18
2019-06-26T13:00:12.154Z,11.38
2019-06-26T13:02:42.791Z,10.20
2019-06-26T13:05:14.314Z,13.43
2019-06-26T13:07:46.090Z,6.95
2019-06-26T13:10:18.074Z,8.55
2019-06-26T13:12:49.755Z,6.72
2019-06-26T13:15:20.484Z,6.30
2019-06-26T13:17:54.001Z,7.10
2019-06-26T13:20:24.850Z,9.43
2019-06-26T13:22:56.079Z,8.78
2019-06-26T13:25:27.370Z,8.75
2019-06-26T13:27:58.736Z,9.98
2019-06-26T13:30:37.799Z,8.78
2019-06-26T13:33:08.883Z,8.53
2019-06-26T13:35:39.954Z,7.20
2019-06-26T13:38:11.543Z,8.50
2019-06-26T13:40:42.534Z,7.20
2019-06-26T13:43:13.765Z,8.28
2019-06-26T13:45:45.011Z,8.10
2019-06-26T13:48:16.690Z,9.93
2019-06-26T13:50:47.366Z,10.88
2019-06-26T13:53:18.453Z,7.37
2019-06-26T13:55:49.308Z,8.50
2019-06-26T13:58:20.898Z,7.45
2019-06-26T14:00:51.219Z,8.98
2019-06-26T14:03:22.121Z,10.00
2019-06-26T14:05:53.858Z,7.67
2019-06-26T14:08:25.221Z,8.40
2019-06-26T14:10:56.368Z,8.88
2019-06-26T14:13:27.842Z,7.37
2019-06-26T14:15:59.252Z,9.45
2019-06-26T14:18:30.915Z,9.60
2019-06-26T14:21:01.246Z,7.72
2019-06-26T14:23:32.288Z,10.95
2019-06-26T14:26:03.238Z,8.03
2019-06-26T14:28:45.369Z,8.05
2019-06-26T14:31:17.049Z,13.45
2019-06-26T14:33:48.766Z,12.18
2019-06-26T14:36:23.015Z,10.23
2019-06-26T14:38:52.243Z,11.83
2019-06-26T14:41:23.499Z,10.18
2019-06-26T14:43:54.851Z,7.83
2019-06-26T14:46:25.555Z,9.30
2019-06-26T14:48:58.802Z,8.35
2019-06-26T14:51:42.316Z,10.00
2019-06-26T14:54:15.084Z,9.58
2019-06-26T14:56:50.170Z,9.05
2019-06-26T14:59:21.396Z,7.80
2019-06-26T15:01:55.746Z,9.25
2019-06-26T15:04:27.238Z,7.60
2019-06-26T15:06:57.974Z,7.50
2019-06-26T15:09:29.491Z,9.63
2019-06-26T15:12:00.665Z,9.15
2019-06-26T15:14:31.513Z,8.35
2019-06-26T15:17:02.715Z,10.63
2019-06-26T15:19:33.817Z,9.65
2019-06-26T15:22:04.946Z,8.60
2019-06-26T15:24:36.293Z,9.38
2019-06-26T15:27:07.010Z,8.80
2019-06-26T15:29:38.061Z,9.93
2019-06-26T15:32:09.212Z,11.57
2019-06-26T15:34:40.338Z,11.88
2019-06-26T15:37:11.002Z,10.25
2019-06-26T15:39:42.556Z,10.88
2019-06-26T15:42:13.766Z,12.43
2019-06-26T15:44:44.790Z,8.88
2019-06-26T15:47:16.871Z,11.15
2019-06-26T15:49:48.396Z,9.25
2019-06-26T15:52:19.775Z,10.60
2019-06-26T15:54:51.342Z,9.00
2019-06-26T15:57:22.299Z,8.68
2019-06-26T15:59:55.835Z,16.07
2019-06-26T16:02:27.309Z,9.48
2019-06-26T16:04:58.848Z,15.38
2019-06-26T16:07:31.152Z,13.95
2019-06-26T16:10:02.415Z,13.72
2019-06-26T16:12:33.823Z,11.43
2019-06-26T16:15:06.371Z,15.58
2019-06-26T16:17:46.874Z,10.20
2019-06-26T16:20:18.741Z,9.63
2019-06-26T16:22:50.088Z,9.78
2019-06-26T16:25:21.902Z,8.38
2019-06-26T16:28:04.608Z,11.93
2019-06-26T16:30:25.950Z,8.00
2019-06-26T16:32:57.438Z,8.18
2019-06-26T16:35:28.506Z,12.25
2019-06-26T16:37:59.899Z,11.43
2019-06-26T16:40:31.394Z,13.32
2019-06-26T16:43:02.475Z,14.23
2019-06-26T16:45:33.547Z,10.93
2019-06-26T16:48:05.624Z,14.30
2019-06-26T16:50:36.247Z,12.82
2019-06-26T16:53:07.611Z,11.08
2019-06-26T16:55:38.229Z,10.43
2019-06-26T16:58:09.984Z,11.33
2019-06-26T17:00:41.348Z,9.90
2019-06-26T17:03:13.705Z,14.87
2019-06-26T17:05:44.986Z,11.25
2019-06-26T17:08:15.915Z,11.15
2019-06-26T17:10:47.550Z,11.97
2019-06-26T17:13:18.760Z,11.28
2019-06-26T17:15:49.808Z,13.20
2019-06-26T17:18:21.115Z,11.38
2019-06-26T17:20:52.331Z,13.32
2019-06-26T17:23:23.387Z,9.53
2019-06-26T17:25:54.307Z,12.85
2019-06-26T17:28:25.293Z,12.55
2019-06-26T17:30:56.694Z,11.65
2019-06-26T17:33:28.369Z,13.03
2019-06-26T17:35:58.871Z,15.10
2019-06-26T17:38:41.458Z,11.40
2019-06-26T17:41:12.209Z,13.78
2019-06-26T17:43:43.566Z,14.40
2019-06-26T17:46:14.647Z,11.53
2019-06-26T17:48:45.670Z,11.30
2019-06-26T17:51:16.701Z,18.17
2019-06-26T17:53:48.262Z,11.28
2019-06-26T17:56:20.617Z,14.03
2019-06-26T17:58:51.373Z,15.48
2019-06-26T18:01:22.632Z,10.30
2019-06-26T18:03:54.602Z,14.50
2019-06-26T18:06:25.634Z,12.65
2019-06-26T18:08:56.674Z,13.32
2019-06-26T18:11:28.050Z,19.55
2019-06-26T18:13:59.277Z,11.97
2019-06-26T18:16:37.853Z,13.85
2019-06-26T18:19:08.821Z,16.95
2019-06-26T18:21:39.178Z,14.43
2019-06-26T18:24:10.846Z,13.58
2019-06-26T18:26:42.151Z,16.23
2019-06-26T18:29:13.402Z,17.20
2019-06-26T18:31:44.422Z,13.00
2019-06-26T18:34:16.445Z,15.13
2019-06-26T18:36:47.980Z,18.57
2019-06-26T18:39:19.366Z,15.35
2019-06-26T18:41:50.410Z,12.00
2019-06-26T18:44:22.095Z,13.38
2019-06-26T18:46:53.637Z,12.55
2019-06-26T18:49:26.136Z,13.68
2019-06-26T18:52:02.475Z,15.20
2019-06-26T18:54:37.529Z,12.73
2019-06-26T18:57:11.016Z,17.80
2019-06-26T18:59:46.629Z,13.13
2019-06-26T19:02:18.656Z,17.80
2019-06-26T19:04:49.875Z,17.13
2019-06-26T19:07:22.775Z,16.40
2019-06-26T19:09:54.303Z,14.93
2019-06-26T19:12:26.296Z,18.47
2019-06-26T19:15:00.208Z,18.77
2019-06-26T19:17:50.178Z,18.03
2019-06-26T19:20:22.009Z,18.50
2019-06-26T19:22:53.790Z,12.50
2019-06-26T19:25:24.457Z,20.10
2019-06-26T19:27:58.400Z,14.47
2019-06-26T19:30:30.672Z,14.67
2019-06-26T19:33:03.366Z,17.97
2019-06-26T19:35:39.090Z,23.23
2019-06-26T19:38:09.431Z,15.53
2019-06-26T19:40:40.138Z,15.20
2019-06-26T19:43:11.959Z,18.83
2019-06-26T19:45:46.989Z,20.80
2019-06-26T19:48:18.296Z,20.63
2019-06-26T19:50:49.566Z,19.17
2019-06-26T19:53:20.526Z,15.30
2019-06-26T19:55:52.611Z,23.50
2019-06-26T19:58:23.737Z,22.57
2019-06-26T20:00:54.324Z,14.73
2019-06-26T20:03:25.218Z,17.07
2019-06-26T20:05:56.643Z,24.73
2019-06-26T20:08:29.734Z,14.30
2019-06-26T20:11:00.755Z,15.10
2019-06-26T20:13:31.774Z,13.77
2019-06-26T20:16:05.969Z,16.70
2019-06-26T20:18:38.921Z,13.63
2019-06-26T20:21:10.297Z,16.27
2019-06-26T20:23:42.607Z,18.43
2019-06-26T20:26:28.862Z,14.77
2019-06-26T20:29:04.495Z,21.20
2019-06-26T20:32:17.905Z,15.63
2019-06-26T20:35:16.055Z,15.43
2019-06-26T20:37:51.028Z,18.77
2019-06-26T20:40:25.200Z,17.17
2019-06-26T20:43:02.624Z,19.83
2019-06-26T20:45:35.775Z,18.70
2019-06-26T20:48:08.302Z,20.93
2019-06-26T20:50:44.166Z,16.43
2019-06-26T20:53:17.191Z,13.80
2019-06-26T20:55:48.065Z,14.67
2019-06-26T20:58:20.559Z,17.63
2019-06-26T21:01:03.937Z,18.70
2019-06-26T21:03:36.421Z,14.33
2019-06-26T21:06:13.864Z,18.27
2019-06-26T21:08:48.113Z,16.00
2019-06-26T21:11:21.203Z,15.00
2019-06-26T21:13:56.134Z,15.57
2019-06-26T21:16:29.133Z,14.77
2019-06-26T21:19:06.356Z,18.93
2019-06-26T21:21:48.849Z,15.03
2019-06-26T21:24:22.429Z,15.23
2019-06-26T21:26:55.102Z,15.90
2019-06-26T21:29:27.825Z,15.70
2019-06-26T21:32:01.104Z,63.10
2019-06-26T21:34:34.826Z,31.23
2019-06-26T21:37:07.109Z,18.37
2019-06-26T21:39:38.234Z,15.80
2019-06-26T21:42:22.291Z,17.20
2019-06-26T21:44:53.263Z,14.33
2019-06-26T21:47:29.293Z,14.13
2019-06-26T21:50:00.484Z,22.20
2019-06-26T21:52:32.283Z,11.87
2019-06-26T21:55:08.334Z,17.77
2019-06-26T21:57:39.847Z,19.23
2019-06-26T22:00:11.118Z,15.33
2019-06-26T22:02:41.896Z,18.30
2019-06-26T22:05:20.931Z,20.17
2019-06-26T22:07:51.720Z,17.27
2019-06-26T22:10:22.037Z,15.07
2019-06-26T22:12:53.264Z,18.67
2019-06-26T22:15:23.912Z,18.40
2019-06-26T22:17:56.489Z,16.73
2019-06-26T22:20:47.016Z,22.83
2019-06-26T22:23:18.335Z,15.33
2019-06-26T22:25:58.545Z,18.73
2019-06-26T22:28:40.916Z,16.63
2019-06-26T22:31:15.984Z,17.10
2019-06-26T22:33:52.109Z,15.23
2019-06-26T22:36:33.728Z,15.67
2019-06-26T22:39:22.726Z,19.43
2019-06-26T22:42:00.441Z,21.03
2019-06-26T22:44:31.897Z,15.13
2019-06-26T22:47:12.282Z,16.97
2019-06-26T22:49:53.891Z,16.33
2019-06-26T22:52:25.584Z,17.67
2019-06-26T22:55:08.867Z,19.17
2019-06-26T22:57:45.352Z,19.93
2019-06-26T23:00:22.163Z,15.87
2019-06-26T23:02:59.449Z,14.70
2019-06-26T23:05:42.359Z,18.20
2019-06-26T23:08:21.826Z,17.30
2019-06-26T23:11:06.100Z,16.03
2019-06-26T23:13:45.121Z,12.17
2019-06-26T23:16:30.375Z,17.97
2019-06-26T23:19:08.683Z,15.53
2019-06-26T23:21:42.564Z,14.70
2019-06-26T23:24:19.622Z,16.60
2019-06-26T23:26:57.385Z,19.73
2019-06-26T23:29:30.323Z,15.67
2019-06-26T23:32:05.871Z,11.93
2019-06-26T23:34:37.060Z,14.43
2019-06-26T23:37:07.677Z,13.07
2019-06-26T23:39:38.509Z,20.17
2019-06-26T23:42:09.553Z,17.97
2019-06-26T23:44:40.912Z,16.83
2019-06-26T23:47:13.174Z,15.43
2019-06-26T23:49:44.205Z,14.27
2019-06-26T23:52:15.367Z,15.77
2019-06-26T23:54:46.669Z,13.60
2019-06-26T23:57:17.331Z,14.97
2019-06-26T23:59:59.416Z,14.17
